Time;durP1;ratioP1;P1;durP2;ratioP2;P2;SDS_P1;SDS_P2;PMS_P1;PMS_P2;Temp;Humidity;BMP_temperature;BMP_pressure;BME280_temperature;BME280_humidity;BME280_pressure;Samples;Min_cycle;Max_cycle;Signal;HPM_P1;HPM_P2
2023/06/19 00:00:53;;;;;;;8.70;7.55;;;;;;;;;;5032294;28;20231;-61
2023/06/19 00:03:18;;;;;;;10.18;7.15;;;;;;;;;;5031999;28;20303;-60
2023/06/19 00:05:43;;;;;;;8.63;7.18;;;;;;;;;;5031607;28;20302;-61
2023/06/19 00:08:09;;;;;;;9.23;7.40;;;;;;;;;;5028415;28;20291;-61
2023/06/19 00:10:34;;;;;;;7.72;6.53;;;;;;;;;;5012681;28;20299;-61
2023/06/19 00:12:59;;;;;;;11.23;8.35;;;;;;;;;;5012054;28;20239;-60
2023/06/19 00:15:25;;;;;;;12.10;8.00;;;;;;;;;;5011837;28;20219;-61
2023/06/19 00:17:50;;;;;;;10.50;7.57;;;;;;;;;;5012617;28;20247;-60
2023/06/19 00:20:15;;;;;;;9.93;7.30;;;;;;;;;;5011316;28;20219;-60
2023/06/19 00:22:41;;;;;;;8.77;6.95;;;;;;;;;;5016563;28;20623;-60
2023/06/19 00:25:06;;;;;;;8.90;7.60;;;;;;;;;;5015785;28;20635;-60
2023/06/19 00:27:32;;;;;;;9.05;7.00;;;;;;;;;;5015974;28;20208;-60
2023/06/19 00:30:01;;;;;;;8.55;7.07;;;;;;;;;;5016407;28;20232;-60
2023/06/19 00:32:28;;;;;;;11.73;7.57;;;;;;;;;;5016339;28;20757;-60
2023/06/19 00:34:53;;;;;;;8.52;6.90;;;;;;;;;;5015524;28;20220;-60
2023/06/19 00:37:18;;;;;;;8.30;7.40;;;;;;;;;;5015794;28;20712;-60
2023/06/19 00:39:43;;;;;;;9.18;7.15;;;;;;;;;;5028224;28;20251;-60
2023/06/19 00:42:09;;;;;;;8.65;7.30;;;;;;;;;;5034929;28;20223;-60
2023/06/19 00:44:34;;;;;;;12.48;6.97;;;;;;;;;;5035988;28;20288;-61
2023/06/19 00:47:00;;;;;;;9.68;6.80;;;;;;;;;;5036016;28;20230;-61
2023/06/19 00:49:25;;;;;;;11.30;6.50;;;;;;;;;;5033557;28;20261;-61
2023/06/19 00:51:51;;;;;;;7.97;6.65;;;;;;;;;;5035918;28;20671;-61
2023/06/19 00:54:17;;;;;;;8.25;6.63;;;;;;;;;;5034475;28;20208;-61
2023/06/19 00:56:42;;;;;;;9.20;6.40;;;;;;;;;;5018159;28;20247;-61
2023/06/19 00:59:09;;;;;;;9.90;6.90;;;;;;;;;;5015634;28;20213;-61
2023/06/19 01:01:34;;;;;;;8.02;6.40;;;;;;;;;;5013894;28;20250;-61
2023/06/19 01:03:59;;;;;;;13.15;6.65;;;;;;;;;;5015753;28;20209;-61
2023/06/19 01:06:27;;;;;;;9.68;6.65;;;;;;;;;;5015325;28;20224;-61
2023/06/19 01:09:02;;;;;;;11.25;6.80;;;;;;;;;;5023603;28;20273;-61
2023/06/19 01:11:29;;;;;;;8.73;5.90;;;;;;;;;;5035452;28;20637;-61
2023/06/19 01:13:57;;;;;;;10.98;5.95;;;;;;;;;;5035473;28;20226;-61
2023/06/19 01:16:23;;;;;;;10.00;6.15;;;;;;;;;;5016545;28;20613;-61
2023/06/19 01:18:48;;;;;;;10.30;6.15;;;;;;;;;;5015528;28;20232;-60
2023/06/19 01:21:15;;;;;;;9.18;6.10;;;;;;;;;;5014966;28;20671;-61
2023/06/19 01:23:40;;;;;;;9.90;6.25;;;;;;;;;;5014751;28;20300;-61
2023/06/19 01:26:07;;;;;;;8.25;5.97;;;;;;;;;;4999598;28;20317;-61
2023/06/19 01:28:32;;;;;;;9.60;5.80;;;;;;;;;;4996031;28;20284;-61
2023/06/19 01:30:57;;;;;;;7.30;5.80;;;;;;;;;;4993919;28;20623;-61
2023/06/19 01:33:25;;;;;;;8.90;6.28;;;;;;;;;;4994365;28;20205;-61
2023/06/19 01:35:51;;;;;;;9.18;6.20;;;;;;;;;;4995681;28;20216;-61
2023/06/19 01:38:16;;;;;;;7.70;6.15;;;;;;;;;;4993305;28;20423;-61
2023/06/19 01:40:42;;;;;;;6.75;5.57;;;;;;;;;;4995380;28;20260;-61
2023/06/19 01:43:07;;;;;;;11.40;6.10;;;;;;;;;;4995299;28;20224;-61
2023/06/19 01:45:32;;;;;;;6.43;5.10;;;;;;;;;;4993321;28;20256;-61
2023/06/19 01:47:58;;;;;;;6.40;5.13;;;;;;;;;;4995473;28;20220;-61
2023/06/19 01:50:23;;;;;;;8.40;5.38;;;;;;;;;;4994196;28;20205;-61
2023/06/19 01:52:49;;;;;;;8.05;5.20;;;;;;;;;;4995495;28;20296;-61
2023/06/19 01:55:14;;;;;;;8.70;5.15;;;;;;;;;;5005785;28;20569;-61
2023/06/19 01:57:40;;;;;;;8.73;4.95;;;;;;;;;;5033959;28;20686;-61
2023/06/19 02:00:07;;;;;;;6.70;5.10;;;;;;;;;;5034092;28;20634;-61
2023/06/19 02:02:32;;;;;;;8.23;4.90;;;;;;;;;;5034606;28;20651;-61
2023/06/19 02:04:58;;;;;;;7.55;4.97;;;;;;;;;;5033659;28;20227;-61
2023/06/19 02:07:23;;;;;;;7.65;5.18;;;;;;;;;;5034228;28;20216;-61
2023/06/19 02:09:49;;;;;;;7.85;5.07;;;;;;;;;;5017315;28;20209;-61
2023/06/19 02:12:14;;;;;;;12.43;5.38;;;;;;;;;;5013461;28;20618;-61
2023/06/19 02:14:39;;;;;;;8.90;5.10;;;;;;;;;;5014388;28;20680;-61
2023/06/19 02:17:05;;;;;;;9.25;4.70;;;;;;;;;;5014188;28;20221;-61
2023/06/19 02:19:30;;;;;;;7.63;4.85;;;;;;;;;;5013508;28;20212;-61
2023/06/19 02:21:55;;;;;;;8.10;4.70;;;;;;;;;;5014358;28;20632;-61
2023/06/19 02:24:21;;;;;;;6.78;4.30;;;;;;;;;;5013601;28;20651;-61
2023/06/19 02:26:46;;;;;;;8.45;4.28;;;;;;;;;;5013633;28;20228;-60
2023/06/19 02:29:11;;;;;;;7.57;4.45;;;;;;;;;;5014177;28;20247;-60
2023/06/19 02:31:36;;;;;;;10.10;4.90;;;;;;;;;;5014339;28;20240;-60
2023/06/19 02:34:02;;;;;;;7.88;5.10;;;;;;;;;;5012827;28;20299;-60
2023/06/19 02:36:28;;;;;;;6.00;4.63;;;;;;;;;;5014227;28;20205;-60
2023/06/19 02:38:53;;;;;;;7.18;4.72;;;;;;;;;;5018303;28;20218;-61
2023/06/19 02:41:19;;;;;;;6.63;4.82;;;;;;;;;;5025677;28;20231;-61
2023/06/19 02:43:44;;;;;;;8.80;5.32;;;;;;;;;;4995012;28;20232;-61
2023/06/19 02:46:09;;;;;;;6.65;4.70;;;;;;;;;;4998294;28;20225;-61
2023/06/19 02:48:35;;;;;;;6.80;3.88;;;;;;;;;;4983656;28;20240;-61
2023/06/19 02:51:00;;;;;;;5.43;3.80;;;;;;;;;;4993961;28;20212;-61
2023/06/19 02:53:25;;;;;;;7.00;3.72;;;;;;;;;;5003838;28;20208;-61
2023/06/19 02:55:51;;;;;;;6.90;3.80;;;;;;;;;;4986965;28;20271;-61
2023/06/19 02:58:16;;;;;;;8.57;3.97;;;;;;;;;;4975991;28;20267;-61
2023/06/19 03:00:41;;;;;;;4.88;3.30;;;;;;;;;;4994895;28;20445;-61
2023/06/19 03:03:07;;;;;;;7.60;3.50;;;;;;;;;;5001097;28;20220;-61
2023/06/19 03:05:32;;;;;;;6.30;3.55;;;;;;;;;;5003171;28;20229;-61
2023/06/19 03:07:57;;;;;;;6.75;3.42;;;;;;;;;;5001792;28;20223;-61
2023/06/19 03:10:23;;;;;;;4.68;2.90;;;;;;;;;;4983539;28;20216;-61
2023/06/19 03:12:48;;;;;;;9.25;3.30;;;;;;;;;;4984591;28;20295;-61
2023/06/19 03:15:13;;;;;;;8.77;3.17;;;;;;;;;;4983133;28;20299;-61
2023/06/19 03:17:39;;;;;;;6.28;2.80;;;;;;;;;;4980353;28;20677;-61
2023/06/19 03:20:05;;;;;;;4.85;2.80;;;;;;;;;;4975302;28;20228;-61
2023/06/19 03:22:31;;;;;;;7.53;2.72;;;;;;;;;;4994459;28;20220;-61
2023/06/19 03:24:56;;;;;;;5.28;3.15;;;;;;;;;;4987966;28;20226;-61
2023/06/19 03:27:21;;;;;;;4.95;2.83;;;;;;;;;;4983653;28;20209;-61
2023/06/19 03:29:47;;;;;;;5.40;3.22;;;;;;;;;;4983310;28;20595;-61
2023/06/19 03:32:12;;;;;;;5.20;3.40;;;;;;;;;;5002169;28;20629;-61
2023/06/19 03:34:37;;;;;;;4.85;3.40;;;;;;;;;;5003394;28;20224;-61
2023/06/19 03:37:03;;;;;;;4.65;3.20;;;;;;;;;;5001689;28;20215;-61
2023/06/19 03:39:28;;;;;;;11.57;3.85;;;;;;;;;;5001818;28;20209;-61
2023/06/19 03:41:53;;;;;;;8.07;3.47;;;;;;;;;;4995231;28;20205;-61
2023/06/19 03:44:19;;;;;;;5.13;3.17;;;;;;;;;;5009552;28;20209;-61
2023/06/19 03:46:44;;;;;;;7.82;3.53;;;;;;;;;;5012639;28;20307;-61
2023/06/19 03:49:09;;;;;;;5.00;2.90;;;;;;;;;;5012566;28;20247;-61
2023/06/19 03:51:35;;;;;;;5.95;2.95;;;;;;;;;;4994987;28;20216;-61
2023/06/19 03:54:00;;;;;;;4.10;2.67;;;;;;;;;;4993364;28;20220;-61
2023/06/19 03:56:25;;;;;;;4.25;2.80;;;;;;;;;;5021221;28;20293;-61
2023/06/19 03:58:51;;;;;;;4.57;2.53;;;;;;;;;;5031942;28;20254;-61
2023/06/19 04:01:16;;;;;;;5.43;2.70;;;;;;;;;;4983581;28;20272;-61
2023/06/19 04:03:41;;;;;;;4.63;2.95;;;;;;;;;;4976686;28;20236;-61
2023/06/19 04:06:06;;;;;;;4.70;2.88;;;;;;;;;;4982326;28;20237;-61
2023/06/19 04:08:33;;;;;;;5.15;2.88;;;;;;;;;;4996329;28;20208;-61
2023/06/19 04:10:58;;;;;;;5.20;3.00;;;;;;;;;;4983542;28;20228;-61
2023/06/19 04:13:25;;;;;;;4.57;3.05;;;;;;;;;;4982125;28;20212;-61
2023/06/19 04:15:51;;;;;;;7.32;3.30;;;;;;;;;;4989752;28;20248;-61
2023/06/19 04:18:16;;;;;;;5.47;2.95;;;;;;;;;;4982360;28;20209;-61
2023/06/19 04:20:42;;;;;;;11.98;3.60;;;;;;;;;;4976797;28;20481;-61
2023/06/19 04:23:07;;;;;;;6.70;3.17;;;;;;;;;;4974351;28;20274;-60
2023/06/19 04:25:32;;;;;;;5.55;3.22;;;;;;;;;;4977193;28;20224;-61
2023/06/19 04:27:58;;;;;;;22.27;4.90;;;;;;;;;;4981886;28;20315;-61
2023/06/19 04:30:23;;;;;;;21.40;4.13;;;;;;;;;;4982714;28;20334;-61
2023/06/19 04:32:48;;;;;;;20.77;4.30;;;;;;;;;;4982364;28;20221;-60
2023/06/19 04:35:14;;;;;;;11.35;3.33;;;;;;;;;;4982474;28;20234;-61
2023/06/19 04:37:39;;;;;;;15.93;3.97;;;;;;;;;;4983035;28;20906;-61
2023/06/19 04:40:05;;;;;;;5.72;3.13;;;;;;;;;;4981660;28;20367;-61
2023/06/19 04:42:30;;;;;;;3.78;2.72;;;;;;;;;;4997760;28;20214;-60
2023/06/19 04:44:59;;;;;;;4.93;3.20;;;;;;;;;;4994197;28;20224;-61
2023/06/19 04:47:24;;;;;;;10.23;3.60;;;;;;;;;;4991624;28;20205;-61
2023/06/19 04:49:49;;;;;;;6.88;3.17;;;;;;;;;;4996455;28;20452;-61
2023/06/19 04:52:15;;;;;;;6.63;3.42;;;;;;;;;;4982166;28;20314;-61
2023/06/19 04:54:40;;;;;;;5.38;3.30;;;;;;;;;;4982909;28;20229;-61
2023/06/19 04:57:06;;;;;;;5.20;3.55;;;;;;;;;;4982040;28;20217;-60
2023/06/19 04:59:31;;;;;;;7.55;3.78;;;;;;;;;;4982861;28;20306;-60
2023/06/19 05:01:57;;;;;;;5.43;3.45;;;;;;;;;;4982343;28;20217;-61
2023/06/19 05:04:23;;;;;;;10.65;4.38;;;;;;;;;;4980739;28;20235;-60
2023/06/19 05:06:48;;;;;;;6.10;3.83;;;;;;;;;;4975322;28;20444;-61
2023/06/19 05:09:14;;;;;;;6.22;3.88;;;;;;;;;;4977992;28;20247;-61
2023/06/19 05:11:39;;;;;;;6.85;4.38;;;;;;;;;;4979958;28;20249;-61
2023/06/19 05:14:04;;;;;;;10.73;5.00;;;;;;;;;;4985345;28;21503;-60
2023/06/19 05:16:30;;;;;;;5.00;3.70;;;;;;;;;;4986250;28;20224;-60
2023/06/19 05:18:55;;;;;;;8.15;4.10;;;;;;;;;;4986018;28;20213;-60
2023/06/19 05:21:20;;;;;;;8.32;4.32;;;;;;;;;;4986115;28;20217;-61
2023/06/19 05:23:52;;;;;;;9.52;4.65;;;;;;;;;;4986034;28;20209;-60
2023/06/19 05:26:18;;;;;;;21.75;5.03;;;;;;;;;;4988521;28;20233;-61
2023/06/19 05:28:43;;;;;;;11.23;4.50;;;;;;;;;;4978597;28;20703;-61
2023/06/19 05:31:09;;;;;;;12.90;4.53;;;;;;;;;;4977382;28;20559;-61
2023/06/19 05:33:34;;;;;;;12.48;4.70;;;;;;;;;;4978028;28;20735;-61
2023/06/19 05:36:00;;;;;;;16.20;4.95;;;;;;;;;;4984456;28;20701;-62
2023/06/19 05:38:28;;;;;;;8.95;5.15;;;;;;;;;;4985437;28;20213;-61
2023/06/19 05:40:53;;;;;;;10.35;4.80;;;;;;;;;;5004444;28;20243;-61
2023/06/19 05:43:18;;;;;;;11.80;4.82;;;;;;;;;;5004074;28;20216;-61
2023/06/19 05:45:44;;;;;;;5.63;4.55;;;;;;;;;;5004715;28;20228;-61
2023/06/19 05:48:09;;;;;;;12.73;5.55;;;;;;;;;;5004622;28;20219;-61
2023/06/19 05:50:35;;;;;;;10.27;5.68;;;;;;;;;;4991349;28;20221;-61
2023/06/19 05:53:00;;;;;;;8.45;5.18;;;;;;;;;;4977250;28;20214;-61
2023/06/19 05:55:27;;;;;;;9.18;5.68;;;;;;;;;;4978051;28;20255;-61
2023/06/19 05:57:53;;;;;;;11.98;5.53;;;;;;;;;;5000292;28;20782;-62
2023/06/19 06:00:19;;;;;;;10.75;5.15;;;;;;;;;;5004493;28;20225;-61
2023/06/19 06:02:44;;;;;;;7.72;5.30;;;;;;;;;;5009543;28;20271;-61
2023/06/19 06:05:09;;;;;;;11.10;5.90;;;;;;;;;;5013209;28;20220;-62
2023/06/19 06:07:35;;;;;;;8.60;5.95;;;;;;;;;;5014619;28;20209;-61
2023/06/19 06:10:00;;;;;;;10.38;5.57;;;;;;;;;;5032672;28;20219;-60
2023/06/19 06:12:26;;;;;;;13.25;6.55;;;;;;;;;;5033671;28;20212;-60
2023/06/19 06:14:51;;;;;;;10.82;6.18;;;;;;;;;;5028796;28;20212;-60
2023/06/19 06:17:16;;;;;;;13.02;7.07;;;;;;;;;;5014274;28;20219;-60
2023/06/19 06:19:42;;;;;;;10.13;6.80;;;;;;;;;;5013205;28;20220;-60
2023/06/19 06:22:07;;;;;;;11.18;7.35;;;;;;;;;;5014123;28;20217;-59
2023/06/19 06:24:32;;;;;;;15.80;7.35;;;;;;;;;;5014119;28;20208;-59
2023/06/19 06:26:58;;;;;;;9.20;6.65;;;;;;;;;;5013662;28;20575;-59
2023/06/19 06:29:24;;;;;;;9.35;7.10;;;;;;;;;;5013670;28;20608;-59
2023/06/19 06:31:52;;;;;;;15.05;8.70;;;;;;;;;;5013696;28;20287;-59
2023/06/19 06:34:18;;;;;;;11.30;8.45;;;;;;;;;;5013769;28;20212;-59
2023/06/19 06:36:43;;;;;;;18.98;9.65;;;;;;;;;;5014291;28;20688;-61
2023/06/19 06:39:08;;;;;;;10.98;9.25;;;;;;;;;;5012960;28;20209;-61
2023/06/19 06:41:34;;;;;;;15.40;9.75;;;;;;;;;;5014190;28;20240;-60
2023/06/19 06:43:59;;;;;;;12.23;8.70;;;;;;;;;;5013969;28;20299;-60
2023/06/19 06:46:24;;;;;;;10.93;9.25;;;;;;;;;;5012664;28;21006;-60
2023/06/19 06:48:49;;;;;;;11.70;8.73;;;;;;;;;;5013948;28;20216;-60
2023/06/19 06:51:15;;;;;;;10.25;8.55;;;;;;;;;;5013521;28;20212;-60
2023/06/19 06:53:40;;;;;;;10.93;8.20;;;;;;;;;;5013004;28;20299;-60
2023/06/19 06:56:05;;;;;;;9.88;8.43;;;;;;;;;;5026125;28;20212;-60
2023/06/19 06:58:31;;;;;;;12.60;8.30;;;;;;;;;;5033710;28;20216;-60
2023/06/19 07:00:56;;;;;;;10.68;8.13;;;;;;;;;;5032826;28;20216;-60
2023/06/19 07:03:21;;;;;;;10.40;8.07;;;;;;;;;;5022054;28;20573;-60
2023/06/19 07:05:48;;;;;;;12.38;8.52;;;;;;;;;;4997354;28;20586;-60
2023/06/19 07:08:13;;;;;;;14.30;8.10;;;;;;;;;;5004066;28;20217;-60
2023/06/19 07:10:39;;;;;;;9.18;7.50;;;;;;;;;;5020633;28;20208;-60
2023/06/19 07:13:04;;;;;;;10.15;8.02;;;;;;;;;;5013119;28;20232;-60
2023/06/19 07:15:29;;;;;;;10.02;7.82;;;;;;;;;;5012231;28;20236;-60
2023/06/19 07:17:55;;;;;;;17.85;8.52;;;;;;;;;;5013472;28;20219;-60
2023/06/19 07:20:20;;;;;;;16.60;8.23;;;;;;;;;;5013164;28;20274;-60
2023/06/19 07:22:46;;;;;;;16.77;8.40;;;;;;;;;;5020951;28;20284;-60
2023/06/19 07:25:11;;;;;;;12.13;8.40;;;;;;;;;;5032303;28;20623;-60
2023/06/19 07:27:37;;;;;;;12.30;9.13;;;;;;;;;;5033252;28;20208;-60
2023/06/19 07:30:02;;;;;;;11.70;8.75;;;;;;;;;;5031143;28;20766;-61
2023/06/19 07:32:27;;;;;;;11.65;8.88;;;;;;;;;;5032661;28;20322;-60
2023/06/19 07:34:53;;;;;;;11.77;8.75;;;;;;;;;;5032839;28;20208;-61
2023/06/19 07:37:18;;;;;;;12.77;9.05;;;;;;;;;;5031798;28;20226;-59
2023/06/19 07:39:44;;;;;;;12.15;7.95;;;;;;;;;;5032303;28;20243;-60
2023/06/19 07:42:10;;;;;;;7.97;6.88;;;;;;;;;;5031647;28;20220;-60
2023/06/19 07:44:35;;;;;;;10.73;7.13;;;;;;;;;;5028120;28;20577;-60
2023/06/19 07:47:01;;;;;;;12.93;6.88;;;;;;;;;;5014102;28;20224;-59
2023/06/19 07:49:26;;;;;;;10.20;7.18;;;;;;;;;;5031801;28;20216;-59
2023/06/19 07:51:51;;;;;;;13.27;7.05;;;;;;;;;;5032733;28;20208;-59
2023/06/19 07:54:17;;;;;;;9.02;6.78;;;;;;;;;;5032123;28;20219;-59
2023/06/19 07:56:42;;;;;;;8.38;6.43;;;;;;;;;;5031654;28;20322;-59
2023/06/19 07:59:07;;;;;;;11.25;6.93;;;;;;;;;;5032088;28;20211;-60
2023/06/19 08:01:33;;;;;;;9.35;6.85;;;;;;;;;;5032069;28;20204;-59
2023/06/19 08:03:58;;;;;;;12.90;7.57;;;;;;;;;;5031869;28;20215;-60
2023/06/19 08:06:23;;;;;;;9.23;6.22;;;;;;;;;;5031822;28;20228;-60
2023/06/19 08:08:49;;;;;;;9.10;6.28;;;;;;;;;;5023918;28;20224;-60
2023/06/19 08:11:14;;;;;;;10.93;8.10;;;;;;;;;;5011164;28;20219;-60
2023/06/19 08:13:40;;;;;;;9.07;7.22;;;;;;;;;;5012529;28;20216;-60
2023/06/19 08:16:05;;;;;;;10.63;6.97;;;;;;;;;;5011638;28;20216;-60
2023/06/19 08:18:31;;;;;;;11.50;7.10;;;;;;;;;;5011872;28;20215;-60
2023/06/19 08:20:56;;;;;;;11.85;8.35;;;;;;;;;;5012461;28;20216;-60
2023/06/19 08:23:21;;;;;;;12.52;8.65;;;;;;;;;;5012355;28;20216;-60
2023/06/19 08:25:47;;;;;;;12.13;8.50;;;;;;;;;;5011560;28;20236;-60
2023/06/19 08:28:12;;;;;;;10.82;8.40;;;;;;;;;;5012094;28;20354;-60
2023/06/19 08:30:37;;;;;;;11.63;9.57;;;;;;;;;;5012205;28;20247;-60
2023/06/19 08:33:03;;;;;;;15.07;8.95;;;;;;;;;;5011121;28;20228;-60
2023/06/19 08:35:28;;;;;;;12.93;9.85;;;;;;;;;;5012255;28;20255;-60
2023/06/19 08:37:54;;;;;;;12.98;9.43;;;;;;;;;;5012362;28;20216;-60
2023/06/19 08:40:20;;;;;;;12.32;9.07;;;;;;;;;;5010910;28;20240;-60
2023/06/19 08:42:45;;;;;;;13.90;9.13;;;;;;;;;;5015009;28;20209;-60
2023/06/19 08:45:10;;;;;;;13.65;8.68;;;;;;;;;;5024602;28;20304;-60
2023/06/19 08:47:36;;;;;;;14.88;9.63;;;;;;;;;;5033509;28;20286;-60
2023/06/19 08:50:01;;;;;;;12.98;10.25;;;;;;;;;;5022326;28;20314;-60
2023/06/19 08:52:27;;;;;;;12.65;9.77;;;;;;;;;;5028817;28;20273;-60
2023/06/19 08:54:52;;;;;;;19.02;9.80;;;;;;;;;;5035850;28;20218;-60
2023/06/19 08:57:17;;;;;;;12.13;9.77;;;;;;;;;;5035284;28;20214;-60
2023/06/19 08:59:49;;;;;;;13.35;9.35;;;;;;;;;;5027067;28;20230;-60
2023/06/19 09:02:14;;;;;;;12.15;8.48;;;;;;;;;;5034987;28;20632;-60
2023/06/19 09:04:40;;;;;;;13.05;8.40;;;;;;;;;;5035446;28;20246;-60
2023/06/19 09:07:06;;;;;;;11.43;9.40;;;;;;;;;;5034477;28;20279;-60
2023/06/19 09:09:32;;;;;;;12.52;10.02;;;;;;;;;;5021193;28;20212;-60
2023/06/19 09:12:02;;;;;;;13.25;10.15;;;;;;;;;;5014286;28;20208;-61
2023/06/19 09:14:34;;;;;;;13.57;10.43;;;;;;;;;;5013468;28;20295;-60
2023/06/19 09:17:00;;;;;;;13.60;10.30;;;;;;;;;;5015384;28;20212;-60
2023/06/19 09:19:26;;;;;;;15.20;12.05;;;;;;;;;;5013908;28;20211;-60
2023/06/19 09:21:51;;;;;;;17.55;11.82;;;;;;;;;;5013941;28;20246;-60
2023/06/19 09:24:16;;;;;;;16.13;12.20;;;;;;;;;;5015097;28;20205;-60
2023/06/19 09:26:42;;;;;;;14.82;10.95;;;;;;;;;;5015191;28;20232;-60
2023/06/19 09:29:11;;;;;;;12.00;10.40;;;;;;;;;;5014427;28;20710;-60
2023/06/19 09:31:37;;;;;;;13.70;10.32;;;;;;;;;;5015149;28;20278;-60
2023/06/19 09:34:03;;;;;;;13.38;11.15;;;;;;;;;;5014825;28;20400;-60
2023/06/19 09:36:29;;;;;;;14.05;10.68;;;;;;;;;;5008459;28;20217;-60
2023/06/19 09:38:55;;;;;;;13.32;9.85;;;;;;;;;;4994447;28;20289;-60
2023/06/19 09:41:21;;;;;;;14.73;10.27;;;;;;;;;;4993832;28;20748;-61
2023/06/19 09:43:46;;;;;;;14.93;11.48;;;;;;;;;;5010097;28;20299;-60
2023/06/19 09:46:12;;;;;;;15.35;11.68;;;;;;;;;;5014255;28;20699;-60
2023/06/19 09:48:41;;;;;;;16.83;11.75;;;;;;;;;;5012634;28;20224;-60
2023/06/19 09:51:16;;;;;;;14.95;11.85;;;;;;;;;;5014562;28;20243;-60
2023/06/19 09:53:43;;;;;;;16.88;13.07;;;;;;;;;;5012486;28;20216;-60
2023/06/19 09:56:08;;;;;;;14.25;11.60;;;;;;;;;;5026793;28;20212;-61
2023/06/19 09:58:34;;;;;;;12.60;11.30;;;;;;;;;;5034546;28;20222;-60
2023/06/19 10:00:59;;;;;;;14.38;12.07;;;;;;;;;;5034193;28;20216;-60
2023/06/19 10:03:31;;;;;;;14.35;11.13;;;;;;;;;;5030869;28;20211;-60
2023/06/19 10:05:57;;;;;;;13.73;11.45;;;;;;;;;;5034242;28;20232;-61
2023/06/19 10:08:28;;;;;;;17.00;12.65;;;;;;;;;;5028957;28;20219;-60
2023/06/19 10:10:54;;;;;;;16.75;11.35;;;;;;;;;;5013902;28;20687;-61
2023/06/19 10:13:20;;;;;;;14.63;11.18;;;;;;;;;;5007634;28;20221;-60
2023/06/19 10:15:47;;;;;;;16.02;13.00;;;;;;;;;;5012367;28;20217;-60
2023/06/19 10:18:13;;;;;;;15.50;11.38;;;;;;;;;;5012670;28;20630;-60
2023/06/19 10:20:38;;;;;;;14.82;10.95;;;;;;;;;;5014202;28;20208;-61
2023/06/19 10:23:06;;;;;;;12.13;10.20;;;;;;;;;;5012486;28;20267;-61
2023/06/19 10:25:32;;;;;;;14.95;11.68;;;;;;;;;;5012328;28;20226;-60
2023/06/19 10:27:58;;;;;;;13.38;10.07;;;;;;;;;;5013822;28;20299;-60
2023/06/19 10:30:23;;;;;;;15.63;11.38;;;;;;;;;;5007554;28;20300;-60
2023/06/19 10:32:49;;;;;;;13.48;11.95;;;;;;;;;;5008165;28;20219;-60
2023/06/19 10:35:14;;;;;;;12.45;10.85;;;;;;;;;;5012525;28;20354;-61
2023/06/19 10:37:40;;;;;;;16.38;12.65;;;;;;;;;;5012487;28;20235;-60
2023/06/19 10:40:12;;;;;;;15.18;11.70;;;;;;;;;;5018967;28;20232;-60
2023/06/19 10:42:38;;;;;;;14.52;11.52;;;;;;;;;;5009974;28;20255;-61
2023/06/19 10:45:03;;;;;;;13.68;11.43;;;;;;;;;;5019941;28;20236;-60
2023/06/19 10:47:29;;;;;;;13.65;11.77;;;;;;;;;;5033610;28;20220;-61
2023/06/19 10:49:54;;;;;;;16.98;13.25;;;;;;;;;;5009520;28;20221;-61
2023/06/19 10:52:19;;;;;;;16.52;12.30;;;;;;;;;;5013636;28;21182;-61
2023/06/19 10:54:45;;;;;;;15.60;13.27;;;;;;;;;;5016714;28;20683;-61
2023/06/19 10:57:10;;;;;;;15.82;13.35;;;;;;;;;;5013215;28;20216;-61
2023/06/19 10:59:35;;;;;;;16.42;13.60;;;;;;;;;;5011415;28;20688;-60
2023/06/19 11:02:01;;;;;;;17.73;14.25;;;;;;;;;;5013065;28;20208;-60
2023/06/19 11:04:26;;;;;;;20.10;14.82;;;;;;;;;;5013398;28;20212;-61
2023/06/19 11:06:51;;;;;;;15.68;14.05;;;;;;;;;;5011385;28;20314;-60
2023/06/19 11:09:17;;;;;;;16.10;12.35;;;;;;;;;;5018360;28;20572;-61
2023/06/19 11:11:43;;;;;;;15.00;13.40;;;;;;;;;;5013502;28;20220;-61
2023/06/19 11:14:08;;;;;;;16.60;13.07;;;;;;;;;;5003050;28;20211;-61
2023/06/19 11:16:34;;;;;;;14.15;12.00;;;;;;;;;;5013054;28;20224;-61
2023/06/19 11:18:59;;;;;;;17.20;13.40;;;;;;;;;;5013330;28;20219;-60
2023/06/19 11:21:37;;;;;;;14.98;12.82;;;;;;;;;;5010721;28;20633;-61
2023/06/19 11:24:02;;;;;;;15.95;14.05;;;;;;;;;;5010820;28;20215;-60
2023/06/19 11:26:28;;;;;;;18.27;16.38;;;;;;;;;;5018399;28;20220;-60
2023/06/19 11:28:54;;;;;;;16.85;14.50;;;;;;;;;;5020692;28;20558;-60
2023/06/19 11:31:24;;;;;;;15.48;13.48;;;;;;;;;;5011920;28;20212;-60
2023/06/19 11:33:56;;;;;;;18.00;12.98;;;;;;;;;;5013038;28;20270;-59
2023/06/19 11:36:21;;;;;;;17.50;15.38;;;;;;;;;;5011778;28;20236;-60
2023/06/19 11:38:47;;;;;;;16.67;14.88;;;;;;;;;;5013228;28;20247;-60
2023/06/19 11:41:12;;;;;;;17.17;13.70;;;;;;;;;;5011762;28;20316;-60
2023/06/19 11:43:37;;;;;;;14.05;12.63;;;;;;;;;;5012804;28;20232;-60
2023/06/19 11:46:03;;;;;;;13.57;11.30;;;;;;;;;;5009206;28;20232;-60
2023/06/19 11:48:28;;;;;;;14.85;12.65;;;;;;;;;;5010933;28;20223;-60
2023/06/19 11:50:53;;;;;;;17.48;12.00;;;;;;;;;;5012976;28;20686;-60
2023/06/19 11:53:19;;;;;;;14.73;11.52;;;;;;;;;;5012318;28;20220;-60
2023/06/19 11:55:45;;;;;;;13.52;12.10;;;;;;;;;;5021674;28;20215;-60
2023/06/19 11:58:10;;;;;;;17.35;12.30;;;;;;;;;;5028447;28;20339;-60
2023/06/19 12:00:37;;;;;;;19.50;11.20;;;;;;;;;;5023621;28;20576;-60
2023/06/19 12:03:02;;;;;;;12.60;9.85;;;;;;;;;;5031302;28;20216;-59
2023/06/19 12:05:28;;;;;;;13.85;11.07;;;;;;;;;;5032440;28;20223;-60
2023/06/19 12:07:53;;;;;;;12.02;10.10;;;;;;;;;;5032109;28;20686;-60
2023/06/19 12:10:18;;;;;;;12.30;9.55;;;;;;;;;;5012197;28;20641;-60
2023/06/19 12:12:44;;;;;;;13.00;9.80;;;;;;;;;;5012183;28;20668;-59
2023/06/19 12:15:09;;;;;;;13.52;9.02;;;;;;;;;;5013704;28;20212;-60
2023/06/19 12:17:34;;;;;;;14.15;9.48;;;;;;;;;;5010773;28;20224;-60
2023/06/19 12:20:00;;;;;;;8.80;7.07;;;;;;;;;;5012503;28;20239;-60
2023/06/19 12:22:26;;;;;;;8.93;7.20;;;;;;;;;;5011102;28;20283;-59
2023/06/19 12:24:51;;;;;;;14.32;8.80;;;;;;;;;;5011700;28;20583;-59
2023/06/19 12:27:16;;;;;;;9.35;7.70;;;;;;;;;;5011381;28;20250;-60
2023/06/19 12:29:42;;;;;;;12.35;8.98;;;;;;;;;;5012231;28;20583;-60
2023/06/19 12:32:07;;;;;;;11.35;8.63;;;;;;;;;;5016200;28;20616;-59
2023/06/19 12:34:32;;;;;;;10.73;6.82;;;;;;;;;;5015099;28;20687;-60
2023/06/19 12:36:58;;;;;;;12.13;7.72;;;;;;;;;;5012647;28;20578;-59
2023/06/19 12:39:24;;;;;;;12.48;7.70;;;;;;;;;;5011039;28;20661;-59
2023/06/19 12:41:49;;;;;;;10.38;6.82;;;;;;;;;;5012564;28;20222;-59
2023/06/19 12:44:15;;;;;;;8.02;5.43;;;;;;;;;;5011600;28;20213;-59
2023/06/19 12:46:40;;;;;;;12.13;5.35;;;;;;;;;;5011558;28;20278;-60
2023/06/19 12:49:05;;;;;;;8.00;5.82;;;;;;;;;;5011616;28;20257;-60
2023/06/19 12:51:31;;;;;;;10.85;6.75;;;;;;;;;;5012099;28;20574;-59
2023/06/19 12:53:56;;;;;;;7.40;5.63;;;;;;;;;;5011940;28;20263;-60
2023/06/19 12:56:21;;;;;;;10.90;6.07;;;;;;;;;;5026544;28;20231;-60
2023/06/19 12:58:47;;;;;;;6.88;4.93;;;;;;;;;;5030934;28;20631;-59
2023/06/19 13:01:12;;;;;;;9.10;5.82;;;;;;;;;;5031590;28;20286;-60
2023/06/19 13:03:37;;;;;;;8.50;5.63;;;;;;;;;;5031793;28;20219;-60
2023/06/19 13:06:03;;;;;;;8.07;6.25;;;;;;;;;;5030728;28;20234;-60
2023/06/19 13:08:28;;;;;;;10.02;6.18;;;;;;;;;;5026088;28;20201;-60
2023/06/19 13:10:53;;;;;;;10.13;5.53;;;;;;;;;;5012078;28;20274;-59
2023/06/19 13:13:19;;;;;;;10.55;5.50;;;;;;;;;;5010673;28;20247;-60
2023/06/19 13:15:44;;;;;;;7.22;5.70;;;;;;;;;;5006956;28;20240;-60
2023/06/19 13:18:09;;;;;;;8.90;5.93;;;;;;;;;;5011603;28;20216;-60
2023/06/19 13:20:35;;;;;;;6.82;4.90;;;;;;;;;;5011260;28;20251;-60
2023/06/19 13:23:00;;;;;;;8.48;5.75;;;;;;;;;;5012185;28;20212;-60
2023/06/19 13:25:25;;;;;;;9.27;4.43;;;;;;;;;;5011998;28;20376;-61
2023/06/19 13:27:51;;;;;;;7.90;4.70;;;;;;;;;;5009916;28;20233;-60
2023/06/19 13:30:16;;;;;;;7.75;4.60;;;;;;;;;;5019785;28;20224;-60
2023/06/19 13:32:42;;;;;;;9.90;4.97;;;;;;;;;;5035235;28;20216;-60
2023/06/19 13:35:07;;;;;;;9.15;5.03;;;;;;;;;;5033774;28;20215;-60
2023/06/19 13:37:33;;;;;;;10.10;6.88;;;;;;;;;;5035238;28;20212;-60
2023/06/19 13:39:59;;;;;;;10.25;7.72;;;;;;;;;;5034920;28;20260;-60
2023/06/19 13:42:24;;;;;;;13.60;8.00;;;;;;;;;;5033683;28;20196;-61
2023/06/19 13:44:50;;;;;;;9.52;6.50;;;;;;;;;;5034845;28;20303;-59
2023/06/19 13:47:15;;;;;;;8.80;5.50;;;;;;;;;;5034694;28;20575;-59
2023/06/19 13:49:40;;;;;;;6.40;4.97;;;;;;;;;;5034115;28;20223;-59
2023/06/19 13:52:06;;;;;;;7.90;5.30;;;;;;;;;;5034468;28;20215;-60
2023/06/19 13:54:31;;;;;;;8.15;5.75;;;;;;;;;;5034699;28;20212;-59
2023/06/19 13:56:56;;;;;;;11.68;6.80;;;;;;;;;;5014290;28;20216;-60
2023/06/19 13:59:22;;;;;;;12.15;6.97;;;;;;;;;;5014484;28;20216;-60
2023/06/19 14:01:47;;;;;;;11.63;7.60;;;;;;;;;;5014918;28;20300;-60
2023/06/19 14:04:12;;;;;;;10.27;6.43;;;;;;;;;;5013471;28;20299;-60
2023/06/19 14:06:38;;;;;;;11.77;7.75;;;;;;;;;;5014923;28;20226;-59
2023/06/19 14:09:03;;;;;;;10.02;7.07;;;;;;;;;;5024112;28;20216;-60
2023/06/19 14:11:29;;;;;;;9.43;6.70;;;;;;;;;;5034376;28;20273;-60
2023/06/19 14:13:55;;;;;;;9.73;6.80;;;;;;;;;;5024132;28;20224;-60
2023/06/19 14:16:20;;;;;;;10.95;6.78;;;;;;;;;;5013365;28;20224;-61
2023/06/19 14:18:46;;;;;;;10.38;6.15;;;;;;;;;;5014622;28;20604;-61
2023/06/19 14:21:11;;;;;;;8.90;5.78;;;;;;;;;;5014391;28;20601;-60
2023/06/19 14:23:42;;;;;;;10.13;6.93;;;;;;;;;;5013898;28;20213;-60